createdAt,value
2018-09-09T00:02:18.177Z,5.70
2018-09-09T00:04:46.299Z,6.58
2018-09-09T00:07:14.045Z,6.42
2018-09-09T00:09:46.612Z,4.87
2018-09-09T00:12:14.383Z,5.50
2018-09-09T00:14:42.193Z,5.60
2018-09-09T00:17:10.332Z,5.15
2018-09-09T00:19:38.139Z,3.70
2018-09-09T00:22:06.527Z,5.50
2018-09-09T00:24:34.329Z,5.12
2018-09-09T00:27:02.057Z,6.00
2018-09-09T00:29:30.419Z,5.03
2018-09-09T00:31:58.658Z,5.72
2018-09-09T00:34:27.570Z,6.85
2018-09-09T00:36:55.273Z,6.05
2018-09-09T00:39:22.952Z,7.30
2018-09-09T00:41:50.761Z,5.95
2018-09-09T00:44:19.713Z,6.40
2018-09-09T00:46:47.572Z,7.15
2018-09-09T00:51:23.678Z,6.70
2018-09-09T00:53:51.725Z,6.00
2018-09-09T00:56:28.260Z,6.78
2018-09-09T00:58:56.001Z,5.40
2018-09-09T01:01:24.674Z,4.10
2018-09-09T01:03:52.648Z,7.10
2018-09-09T01:06:20.575Z,3.42
2018-09-09T01:08:49.104Z,3.77
2018-09-09T01:11:16.976Z,5.50
2018-09-09T01:13:45.394Z,6.97
2018-09-09T01:16:13.499Z,3.45
2018-09-09T01:18:41.958Z,6.65
2018-09-09T01:21:10.144Z,6.42
2018-09-09T01:23:37.902Z,6.85
2018-09-09T01:26:07.089Z,7.22
2018-09-09T01:28:35.653Z,6.90
2018-09-09T01:31:04.137Z,5.60
2018-09-09T01:33:31.944Z,5.55
2018-09-09T01:35:59.812Z,6.62
2018-09-09T01:38:27.621Z,5.03
2018-09-09T01:40:56.113Z,5.00
2018-09-09T01:43:23.852Z,6.35
2018-09-09T01:45:52.600Z,4.37
2018-09-09T01:48:21.039Z,5.42
2018-09-09T01:50:49.243Z,5.87
2018-09-09T01:53:17.033Z,5.17
2018-09-09T01:55:45.255Z,5.47
2018-09-09T01:58:13.081Z,3.83
2018-09-09T02:00:40.808Z,5.55
2018-09-09T02:03:08.540Z,5.95
2018-09-09T02:05:36.658Z,5.40
2018-09-09T02:08:04.476Z,5.95
2018-09-09T02:10:32.221Z,6.22
2018-09-09T02:13:00.005Z,6.00
2018-09-09T02:15:28.674Z,5.85
2018-09-09T02:17:56.950Z,6.62
2018-09-09T02:20:24.719Z,6.12
2018-09-09T02:22:53.204Z,5.55
2018-09-09T02:25:21.248Z,5.28
2018-09-09T02:30:16.841Z,4.80
2018-09-09T02:32:45.009Z,6.30
2018-09-09T02:35:12.784Z,6.22
2018-09-09T02:37:40.559Z,5.78
2018-09-09T02:40:08.911Z,5.35
2018-09-09T02:42:37.310Z,5.30
2018-09-09T02:45:05.080Z,5.72
2018-09-09T02:47:33.224Z,5.30
2018-09-09T02:50:01.076Z,5.70
2018-09-09T02:52:29.767Z,6.00
2018-09-09T02:54:57.704Z,3.83
2018-09-09T02:57:26.930Z,5.58
2018-09-09T02:59:56.679Z,5.30
2018-09-09T03:02:24.416Z,5.40
2018-09-09T03:04:52.200Z,3.95
2018-09-09T03:07:20.152Z,5.05
2018-09-09T03:09:47.864Z,4.80
2018-09-09T03:12:15.551Z,4.92
2018-09-09T03:14:43.334Z,4.35
2018-09-09T03:17:11.084Z,4.90
2018-09-09T03:19:38.854Z,4.87
2018-09-09T03:22:06.608Z,4.90
2018-09-09T03:24:34.378Z,5.20
2018-09-09T03:27:03.359Z,4.90
2018-09-09T03:29:32.056Z,4.42
2018-09-09T03:31:59.873Z,2.02
2018-09-09T03:34:27.692Z,5.53
2018-09-09T03:36:55.556Z,3.25
2018-09-09T03:39:23.397Z,5.40
2018-09-09T03:41:51.749Z,3.85
2018-09-09T03:44:20.160Z,5.00
2018-09-09T03:46:48.200Z,3.67
2018-09-09T03:49:16.646Z,4.70
2018-09-09T03:51:44.917Z,5.05
2018-09-09T03:54:13.325Z,4.83
2018-09-09T03:56:42.069Z,5.03
2018-09-09T03:59:09.814Z,5.30
2018-09-09T04:01:37.855Z,4.67
2018-09-09T04:04:05.641Z,4.97
2018-09-09T04:06:34.212Z,4.60
2018-09-09T04:09:03.630Z,4.95
2018-09-09T04:11:33.240Z,5.35
2018-09-09T04:14:01.682Z,4.80
2018-09-09T04:16:29.444Z,3.62
2018-09-09T04:18:57.194Z,2.80
2018-09-09T04:21:24.909Z,3.65
2018-09-09T04:23:52.703Z,4.17
2018-09-09T04:26:21.173Z,3.98
2018-09-09T04:28:48.920Z,3.92
2018-09-09T04:31:17.161Z,4.15
2018-09-09T04:33:45.841Z,4.20
2018-09-09T04:36:13.549Z,3.35
2018-09-09T04:38:41.221Z,4.12
2018-09-09T04:41:08.996Z,3.50
2018-09-09T04:43:36.761Z,3.77
2018-09-09T04:46:04.496Z,3.95
2018-09-09T04:48:32.228Z,4.20
2018-09-09T04:50:59.915Z,2.42
2018-09-09T04:53:27.673Z,4.00
2018-09-09T04:55:55.823Z,3.90
2018-09-09T04:58:23.567Z,3.87
2018-09-09T05:00:51.428Z,3.85
2018-09-09T05:03:22.874Z,3.42
2018-09-09T05:05:51.181Z,3.87
2018-09-09T05:08:24.012Z,3.98
2018-09-09T05:10:52.718Z,3.95
2018-09-09T05:13:20.842Z,3.90
2018-09-09T05:15:49.425Z,3.35
2018-09-09T05:18:17.805Z,3.52
2018-09-09T05:20:45.567Z,3.22
2018-09-09T05:23:13.335Z,3.75
2018-09-09T05:25:41.129Z,3.98
2018-09-09T05:28:09.544Z,3.35
2018-09-09T05:30:37.308Z,4.20
2018-09-09T05:33:05.833Z,2.75
2018-09-09T05:35:33.950Z,4.00
2018-09-09T05:38:01.665Z,3.55
2018-09-09T05:40:29.435Z,3.70
2018-09-09T05:42:57.576Z,3.37
2018-09-09T05:45:26.391Z,2.33
2018-09-09T05:47:54.213Z,3.35
2018-09-09T05:50:21.978Z,3.52
2018-09-09T05:52:49.882Z,3.08
2018-09-09T05:55:17.841Z,3.35
2018-09-09T05:57:46.427Z,3.60
2018-09-09T06:00:14.234Z,3.30
2018-09-09T06:02:42.048Z,3.47
2018-09-09T06:05:10.158Z,2.35
2018-09-09T06:07:38.084Z,3.52
2018-09-09T06:10:07.106Z,3.50
2018-09-09T06:12:34.989Z,3.65
2018-09-09T06:15:03.244Z,3.92
2018-09-09T06:17:31.255Z,3.40
2018-09-09T06:19:59.277Z,3.25
2018-09-09T06:22:27.609Z,4.08
2018-09-09T06:24:56.626Z,3.20
2018-09-09T06:27:24.968Z,3.60
2018-09-09T06:29:55.808Z,3.80
2018-09-09T06:32:24.580Z,3.52
2018-09-09T06:34:52.945Z,3.67
2018-09-09T06:37:21.163Z,3.60
2018-09-09T06:39:49.673Z,3.35
2018-09-09T06:42:18.504Z,3.40
2018-09-09T06:44:53.548Z,3.40
2018-09-09T06:47:21.801Z,3.52
2018-09-09T06:49:50.398Z,3.12
2018-09-09T06:52:18.255Z,3.75
2018-09-09T06:54:46.182Z,3.33
2018-09-09T06:57:15.556Z,2.33
2018-09-09T06:59:44.930Z,2.17
2018-09-09T07:02:12.910Z,1.82
2018-09-09T07:04:41.313Z,2.95
2018-09-09T07:07:09.481Z,3.72
2018-09-09T07:09:38.275Z,3.50
2018-09-09T07:12:06.768Z,1.80
2018-09-09T07:14:34.407Z,3.27
2018-09-09T07:17:02.676Z,3.80
2018-09-09T07:19:30.490Z,3.00
2018-09-09T07:22:02.348Z,3.40
2018-09-09T07:24:30.518Z,4.00
2018-09-09T07:26:58.397Z,3.70
2018-09-09T07:29:26.233Z,3.50
2018-09-09T07:31:54.165Z,3.40
2018-09-09T07:34:22.009Z,3.60
2018-09-09T07:36:50.327Z,2.60
2018-09-09T07:39:18.713Z,4.05
2018-09-09T07:41:46.797Z,4.37
2018-09-09T07:44:15.278Z,3.50
2018-09-09T07:46:43.928Z,4.08
2018-09-09T07:49:11.747Z,3.60
2018-09-09T07:51:41.198Z,4.12
2018-09-09T07:54:12.282Z,3.67
2018-09-09T07:56:40.406Z,3.72
2018-09-09T07:59:08.315Z,3.52
2018-09-09T08:01:36.230Z,3.20
2018-09-09T08:04:06.044Z,4.10
2018-09-09T08:06:36.062Z,4.35
2018-09-09T08:09:06.391Z,4.25
2018-09-09T08:11:36.025Z,3.70
2018-09-09T08:14:06.710Z,3.92
2018-09-09T08:16:36.541Z,4.17
2018-09-09T08:19:04.783Z,4.00
2018-09-09T08:21:34.046Z,3.92
2018-09-09T08:24:02.175Z,3.90
2018-09-09T08:26:31.822Z,3.77
2018-09-09T08:29:01.643Z,3.90
2018-09-09T08:31:30.185Z,4.12
2018-09-09T08:33:59.982Z,3.00
2018-09-09T08:36:30.169Z,4.75
2018-09-09T08:38:58.016Z,4.25
2018-09-09T08:41:26.763Z,4.42
2018-09-09T08:43:57.014Z,4.05
2018-09-09T08:46:25.855Z,3.42
2018-09-09T08:48:55.014Z,4.25
2018-09-09T08:51:23.549Z,4.05
2018-09-09T08:53:52.240Z,4.00
2018-09-09T08:56:20.598Z,3.72
2018-09-09T08:58:49.220Z,3.27
2018-09-09T09:01:16.949Z,3.45
2018-09-09T09:03:44.811Z,3.80
2018-09-09T09:06:12.557Z,3.75
2018-09-09T09:08:40.413Z,3.67
2018-09-09T09:11:08.132Z,2.83
2018-09-09T09:13:35.891Z,3.45
2018-09-09T09:16:04.319Z,2.70
2018-09-09T09:18:32.864Z,3.92
2018-09-09T09:21:01.745Z,3.30
2018-09-09T09:23:31.004Z,3.35
2018-09-09T09:25:59.018Z,3.58
2018-09-09T09:28:26.742Z,2.25
2018-09-09T09:30:54.856Z,3.10
2018-09-09T09:33:22.653Z,1.17
2018-09-09T09:35:51.751Z,2.22
2018-09-09T09:38:20.672Z,2.80
2018-09-09T09:40:49.441Z,2.00
2018-09-09T09:43:17.708Z,2.20
2018-09-09T09:45:46.204Z,2.40
2018-09-09T09:48:14.254Z,2.22
2018-09-09T09:50:42.211Z,2.20
2018-09-09T09:53:09.974Z,2.00
2018-09-09T09:55:38.127Z,2.33
2018-09-09T09:58:07.061Z,2.50
2018-09-09T10:00:40.668Z,1.05
2018-09-09T10:03:09.232Z,2.30
2018-09-09T10:05:37.413Z,2.42
2018-09-09T10:08:05.580Z,2.75
2018-09-09T10:10:33.337Z,2.37
2018-09-09T10:13:01.114Z,2.50
2018-09-09T10:15:30.056Z,2.35
2018-09-09T10:18:05.949Z,2.40
2018-09-09T10:20:33.697Z,2.40
2018-09-09T10:23:01.850Z,2.42
2018-09-09T10:25:29.830Z,2.00
2018-09-09T10:27:58.739Z,2.58
2018-09-09T10:30:29.594Z,1.57
2018-09-09T10:32:57.450Z,2.55
2018-09-09T10:35:28.963Z,2.22
2018-09-09T10:37:56.854Z,1.57
2018-09-09T10:40:24.754Z,2.62
2018-09-09T10:42:54.457Z,2.80
2018-09-09T10:45:22.500Z,2.58
2018-09-09T10:47:51.109Z,2.05
2018-09-09T10:50:21.529Z,2.37
2018-09-09T10:52:51.145Z,2.02
2018-09-09T10:55:20.963Z,2.30
2018-09-09T10:57:52.575Z,2.52
2018-09-09T11:00:21.820Z,2.52
2018-09-09T11:02:51.211Z,2.10
2018-09-09T11:05:20.326Z,2.35
2018-09-09T11:07:48.957Z,2.30
2018-09-09T11:10:19.979Z,2.60
2018-09-09T11:12:50.687Z,2.00
2018-09-09T11:15:18.695Z,2.30
2018-09-09T11:17:46.569Z,2.30
2018-09-09T11:20:15.594Z,2.15
2018-09-09T11:22:44.415Z,2.25
2018-09-09T11:25:13.779Z,2.27
2018-09-09T11:27:41.642Z,1.45
2018-09-09T11:30:09.680Z,1.95
2018-09-09T11:32:41.123Z,2.10
2018-09-09T11:35:09.386Z,2.40
2018-09-09T11:37:38.106Z,1.75
2018-09-09T11:40:06.269Z,2.10
2018-09-09T11:42:34.933Z,1.87
2018-09-09T11:45:03.304Z,2.33
2018-09-09T11:47:33.840Z,1.80
2018-09-09T11:50:03.002Z,1.95
2018-09-09T11:52:32.467Z,2.22
2018-09-09T11:55:01.089Z,2.40
2018-09-09T11:57:29.876Z,2.33
2018-09-09T11:59:57.868Z,1.70
2018-09-09T12:02:25.763Z,1.85
2018-09-09T12:04:53.726Z,2.17
2018-09-09T12:07:23.225Z,2.30
2018-09-09T12:09:51.622Z,2.55
2018-09-09T12:12:20.294Z,2.20
2018-09-09T12:14:56.568Z,2.22
2018-09-09T12:17:33.385Z,2.15
2018-09-09T12:20:02.924Z,2.15
2018-09-09T12:22:38.535Z,1.55
2018-09-09T12:25:06.995Z,1.72
2018-09-09T12:27:36.191Z,1.98
2018-09-09T12:30:05.393Z,1.80
2018-09-09T12:32:34.050Z,2.00
2018-09-09T12:35:01.857Z,1.72
2018-09-09T12:37:29.893Z,1.80
2018-09-09T12:40:18.824Z,1.32
2018-09-09T12:42:51.300Z,1.62
2018-09-09T12:45:25.041Z,1.47
2018-09-09T12:47:59.267Z,1.65
2018-09-09T12:50:35.885Z,1.82
2018-09-09T12:53:04.334Z,1.60
2018-09-09T12:55:32.506Z,1.80
2018-09-09T12:58:00.720Z,1.40
2018-09-09T13:00:29.205Z,1.22
2018-09-09T13:02:57.107Z,1.90
2018-09-09T13:05:25.958Z,1.80
2018-09-09T13:07:53.936Z,1.60
2018-09-09T13:10:22.992Z,1.90
2018-09-09T13:12:57.720Z,1.25
2018-09-09T13:15:25.723Z,1.30
2018-09-09T13:17:53.747Z,1.70
2018-09-09T13:20:21.864Z,1.50
2018-09-09T13:22:51.328Z,1.25
2018-09-09T13:25:19.425Z,1.60
2018-09-09T13:27:49.734Z,1.65
2018-09-09T13:30:20.567Z,1.47
2018-09-09T13:32:48.898Z,1.60
2018-09-09T13:35:27.173Z,1.10
2018-09-09T13:38:01.974Z,1.70
2018-09-09T13:40:32.394Z,1.90
2018-09-09T13:45:45.331Z,1.55
2018-09-09T13:48:14.055Z,2.00
2018-09-09T13:50:43.732Z,1.80
2018-09-09T13:53:11.687Z,2.10
2018-09-09T13:55:40.678Z,1.90
2018-09-09T13:58:11.049Z,2.02
2018-09-09T14:00:40.541Z,1.95
2018-09-09T14:03:14.846Z,1.80
2018-09-09T14:05:43.816Z,1.67
2018-09-09T14:08:12.966Z,1.40
2018-09-09T14:10:41.837Z,1.60
2018-09-09T14:13:14.561Z,1.72
2018-09-09T14:15:42.874Z,1.10
2018-09-09T14:18:12.104Z,1.32
2018-09-09T14:20:41.391Z,1.45
2018-09-09T14:23:11.934Z,1.12
2018-09-09T14:25:40.783Z,1.40
2018-09-09T14:28:10.139Z,1.50
2018-09-09T14:30:42.362Z,1.52
2018-09-09T14:33:18.550Z,1.32
2018-09-09T14:35:49.049Z,1.45
2018-09-09T14:38:19.351Z,1.47
2018-09-09T14:40:49.191Z,1.27
2018-09-09T14:43:18.253Z,1.30
2018-09-09T14:45:47.260Z,1.00
2018-09-09T14:48:15.340Z,1.32
2018-09-09T14:50:45.162Z,1.70
2018-09-09T14:53:13.490Z,1.42
2018-09-09T14:55:49.234Z,1.30
2018-09-09T14:58:27.713Z,1.80
2018-09-09T15:00:55.814Z,1.42
2018-09-09T15:03:26.105Z,1.30
2018-09-09T15:05:54.067Z,1.65
2018-09-09T15:08:22.463Z,1.30
2018-09-09T15:10:54.383Z,1.37
2018-09-09T15:13:28.683Z,1.30
2018-09-09T15:15:56.759Z,1.75
2018-09-09T15:18:24.583Z,1.47
2018-09-09T15:20:54.101Z,1.82
2018-09-09T15:23:22.506Z,1.50
2018-09-09T15:25:50.928Z,8.80
2018-09-09T15:28:19.837Z,1.85
2018-09-09T15:30:50.013Z,2.92
2018-09-09T15:33:17.817Z,1.60
2018-09-09T15:35:46.819Z,1.80
2018-09-09T15:38:22.323Z,1.75
2018-09-09T15:40:51.037Z,1.95
2018-09-09T15:43:21.715Z,1.70
2018-09-09T15:45:49.593Z,1.80
2018-09-09T15:48:17.513Z,1.80
2018-09-09T15:50:46.128Z,2.12
2018-09-09T15:53:13.989Z,1.80
2018-09-09T15:55:43.325Z,2.12
2018-09-09T15:58:12.292Z,1.77
2018-09-09T16:00:40.810Z,1.62
2018-09-09T16:03:11.769Z,1.60
2018-09-09T16:05:40.256Z,1.90
2018-09-09T16:08:09.822Z,1.77
2018-09-09T16:10:37.752Z,1.98
2018-09-09T16:13:09.559Z,2.12
2018-09-09T16:15:41.322Z,1.87
2018-09-09T16:18:10.219Z,2.00
2018-09-09T16:20:38.704Z,1.70
2018-09-09T16:23:11.637Z,1.77
2018-09-09T16:25:40.636Z,1.70
2018-09-09T16:28:11.493Z,1.50
2018-09-09T16:30:39.341Z,1.57
2018-09-09T16:33:07.910Z,1.60
2018-09-09T16:35:35.654Z,1.70
2018-09-09T16:38:03.811Z,1.30
2018-09-09T16:40:31.880Z,1.87
2018-09-09T16:42:59.641Z,1.60
2018-09-09T16:45:27.476Z,1.60
2018-09-09T16:47:55.303Z,1.37
2018-09-09T16:50:24.081Z,1.52
2018-09-09T16:52:51.853Z,1.50
2018-09-09T16:55:19.865Z,1.60
2018-09-09T16:57:48.219Z,1.50
2018-09-09T17:00:15.894Z,1.65
2018-09-09T17:02:44.872Z,1.40
2018-09-09T17:05:12.657Z,1.52
2018-09-09T17:07:41.310Z,1.62
2018-09-09T17:10:09.300Z,1.67
2018-09-09T17:12:37.148Z,1.75
2018-09-09T17:15:05.140Z,1.70
2018-09-09T17:17:33.114Z,1.50
2018-09-09T17:20:01.134Z,1.77
2018-09-09T17:22:30.162Z,2.10
2018-09-09T17:25:01.604Z,1.82
2018-09-09T17:27:32.303Z,2.08
2018-09-09T17:30:01.086Z,2.10
2018-09-09T17:32:33.831Z,2.25
2018-09-09T17:48:11.696Z,1.87
2018-09-09T17:50:43.557Z,2.33
2018-09-09T17:53:12.882Z,2.30
2018-09-09T17:55:41.999Z,2.17
2018-09-09T17:58:13.327Z,2.10
2018-09-09T18:00:42.085Z,2.08
2018-09-09T18:03:13.694Z,2.10
2018-09-09T18:05:42.315Z,2.02
2018-09-09T18:08:12.870Z,1.90
2018-09-09T18:10:41.056Z,1.90
2018-09-09T18:13:09.088Z,2.02
2018-09-09T18:15:37.348Z,2.60
2018-09-09T18:18:05.277Z,2.17
2018-09-09T18:20:33.183Z,2.77
2018-09-09T18:23:01.758Z,2.62
2018-09-09T18:25:31.381Z,2.33
2018-09-09T18:27:59.248Z,2.20
2018-09-09T18:33:03.177Z,2.00
2018-09-09T18:35:33.773Z,2.05
2018-09-09T18:38:05.716Z,1.90
2018-09-09T18:40:35.380Z,2.20
2018-09-09T18:43:04.320Z,1.85
2018-09-09T18:45:35.335Z,2.05
2018-09-09T18:51:18.352Z,1.85
2018-09-09T18:53:47.327Z,2.22
2018-09-09T18:56:18.354Z,3.27
2018-09-09T18:58:52.785Z,3.08
2018-09-09T19:01:25.850Z,2.70
2018-09-09T19:03:59.276Z,2.77
2018-09-09T19:06:32.974Z,2.40
2018-09-09T19:09:02.052Z,4.85
2018-09-09T19:11:31.144Z,4.58
2018-09-09T19:14:01.628Z,2.80
2018-09-09T19:16:29.930Z,2.10
2018-09-09T19:19:15.775Z,2.10
2018-09-09T19:21:45.382Z,1.70
2018-09-09T19:24:14.625Z,2.00
2018-09-09T19:26:43.872Z,1.80
2018-09-09T19:29:14.753Z,2.00
2018-09-09T19:31:49.939Z,1.95
2018-09-09T19:34:19.507Z,1.80
2018-09-09T19:37:06.302Z,1.80
2018-09-09T19:39:38.672Z,2.00
2018-09-09T19:42:06.918Z,1.72
2018-09-09T19:44:36.793Z,2.22
2018-09-09T19:47:05.412Z,1.80
2018-09-09T19:49:34.938Z,1.75
2018-09-09T19:52:04.333Z,1.90
2018-09-09T19:54:32.875Z,1.80
2018-09-09T19:57:05.617Z,1.90
2018-09-09T19:59:35.458Z,1.30
2018-09-09T20:02:04.046Z,1.80
2018-09-09T20:04:33.060Z,1.87
2018-09-09T20:07:03.281Z,1.82
2018-09-09T20:09:32.765Z,1.70
2018-09-09T20:12:03.592Z,1.75
2018-09-09T20:14:31.667Z,1.90
2018-09-09T20:17:00.653Z,1.45
2018-09-09T20:19:28.997Z,1.40
2018-09-09T20:21:57.264Z,1.50
2018-09-09T20:24:32.431Z,1.45
2018-09-09T20:27:02.821Z,1.72
2018-09-09T20:29:31.494Z,1.20
2018-09-09T20:32:13.182Z,1.65
2018-09-09T20:34:41.083Z,1.30
2018-09-09T20:37:09.845Z,1.40
2018-09-09T20:39:38.226Z,1.55
2018-09-09T20:42:10.054Z,1.70
2018-09-09T20:44:40.719Z,1.40
2018-09-09T20:47:09.245Z,1.30
2018-09-09T20:49:38.535Z,1.02
2018-09-09T20:52:16.279Z,1.80
2018-09-09T20:54:44.943Z,1.90
2018-09-09T20:57:13.469Z,2.17
2018-09-09T21:02:14.384Z,1.47
2018-09-09T21:04:42.177Z,1.85
2018-09-09T21:07:10.395Z,1.60
2018-09-09T21:09:38.841Z,1.67
2018-09-09T21:12:06.685Z,1.32
2018-09-09T21:14:35.518Z,1.37
2018-09-09T21:17:07.747Z,1.77
2018-09-09T21:19:36.655Z,1.80
2018-09-09T21:22:04.818Z,1.70
2018-09-09T21:24:33.269Z,1.77
2018-09-09T21:27:01.356Z,1.60
2018-09-09T21:29:29.837Z,1.70
2018-09-09T21:31:57.681Z,1.80
2018-09-09T21:34:25.663Z,1.62
2018-09-09T21:36:53.724Z,1.75
2018-09-09T21:39:22.033Z,1.70
2018-09-09T21:41:49.878Z,2.10
2018-09-09T21:44:18.757Z,1.90
2018-09-09T21:46:47.124Z,1.85
2018-09-09T21:49:15.932Z,1.67
2018-09-09T21:51:43.801Z,1.80
2018-09-09T21:54:11.584Z,1.27
2018-09-09T21:56:40.336Z,1.90
2018-09-09T21:59:08.584Z,1.70
2018-09-09T22:01:42.150Z,2.02
2018-09-09T22:04:10.196Z,1.90
2018-09-09T22:06:39.304Z,2.10
2018-09-09T22:09:09.741Z,2.10
2018-09-09T22:11:40.222Z,2.20
2018-09-09T22:14:08.763Z,2.27
2018-09-09T22:16:37.756Z,2.33
2018-09-09T22:19:07.127Z,2.50
2018-09-09T22:21:35.437Z,2.20
2018-09-09T22:24:06.211Z,2.17
2018-09-09T22:26:34.210Z,2.15
2018-09-09T22:29:04.358Z,2.10
2018-09-09T22:31:32.559Z,2.00
2018-09-09T22:34:00.376Z,2.20
2018-09-09T22:36:29.895Z,2.20
2018-09-09T22:38:59.135Z,2.15
2018-09-09T22:41:27.054Z,2.37
2018-09-09T22:43:55.815Z,2.25
2018-09-09T22:46:23.694Z,2.30
2018-09-09T22:48:53.393Z,2.60
2018-09-09T22:51:22.149Z,2.35
2018-09-09T22:53:51.851Z,2.20
2018-09-09T22:56:20.438Z,2.30
2018-09-09T22:58:49.396Z,2.45
2018-09-09T23:01:17.846Z,2.33
2018-09-09T23:03:46.365Z,2.20
2018-09-09T23:06:14.369Z,2.05
2018-09-09T23:08:42.543Z,2.27
2018-09-09T23:11:11.024Z,2.40
2018-09-09T23:13:39.500Z,2.27
2018-09-09T23:16:08.523Z,2.20
2018-09-09T23:18:36.425Z,2.10
2018-09-09T23:21:12.445Z,2.50
2018-09-09T23:23:41.068Z,2.35
2018-09-09T23:26:11.078Z,2.20
2018-09-09T23:28:43.418Z,2.22
2018-09-09T23:31:11.426Z,2.27
2018-09-09T23:33:39.280Z,2.67
2018-09-09T23:36:07.107Z,2.25
2018-09-09T23:38:35.649Z,2.55
2018-09-09T23:41:05.058Z,2.37
2018-09-09T23:43:35.984Z,2.40
2018-09-09T23:46:05.592Z,2.40
2018-09-09T23:48:33.443Z,2.62
2018-09-09T23:51:03.629Z,2.67
2018-09-09T23:53:32.959Z,2.08
2018-09-09T23:56:02.868Z,2.92
2018-09-09T23:58:33.334Z,2.65
